San Antonio North's Hourly Summary for Thursday, July 5, 2018
Hour Temp
(f)
RH
(%)
Solar Rad.
(MJ/m2)
Rainfall
(in)
Wind
(mph)
7/5/2018 12:00 AM 74 96 0 0 2.45
7/5/2018 1:00 AM 74 96 0 0 2.38
7/5/2018 2:00 AM 73 94 0 0 3.25
7/5/2018 3:00 AM 72 95 0 0 2.99
7/5/2018 4:00 AM 71 95 0 0 3.39
7/5/2018 5:00 AM 71 95 0 0.01 2.52
7/5/2018 6:00 AM 71 96 0 0.01 2.44
7/5/2018 7:00 AM 70 97 0 0.06 1.44
7/5/2018 8:00 AM 70 96 0.07 0.02 2.02
7/5/2018 9:00 AM 71 92 0.62 0.01 1.29
7/5/2018 10:00 AM 73 85 0.73 0 0.53
7/5/2018 11:00 AM 76 75 1.19 0 0.25
7/5/2018 12:00 PM 79 67 1.81 0 2.12
7/5/2018 1:00 PM 83 55 2.63 0 2.24
7/5/2018 2:00 PM 86 48 3.05 0 2.14
7/5/2018 3:00 PM 86 50 1.04 0 2.45
7/5/2018 4:00 PM 87 46 1.6 0 3.44
7/5/2018 5:00 PM 88 43 1.63 0 3.97
7/5/2018 6:00 PM 90 40 1.79 0 4.37
7/5/2018 7:00 PM 89 42 1.34 0 4.5
7/5/2018 8:00 PM 88 44 0.57 0 4.02
7/5/2018 9:00 PM 86 46 0.06 0 1.61
7/5/2018 10:00 PM 82 52 0 0 0.6
7/5/2018 11:00 PM 79 70 0 0 0.18
Data Summary 78 71 18.13 0.11 2.36